Time;durP1;ratioP1;P1;durP2;ratioP2;P2;SDS_P1;SDS_P2;PMS_P1;PMS_P2;Temp;Humidity;BMP_temperature;BMP_pressure;BME280_temperature;BME280_humidity;BME280_pressure;Samples;Min_cycle;Max_cycle;Signal;HPM_P1;HPM_P2
2024/01/06 00:00:42;;;;;;;0.00;0.00;;;;;;;6.01;100.00;99812.25;4968383;28;20034;-80
2024/01/06 00:03:08;;;;;;;0.00;0.00;;;;;;;5.96;100.00;99809.47;4961546;28;20045;-78
2024/01/06 00:05:33;;;;;;;0.00;0.00;;;;;;;6.00;100.00;99824.19;4928688;28;20081;-78
2024/01/06 00:07:58;;;;;;;0.10;0.10;;;;;;;5.72;100.00;99798.81;4980362;28;20031;-79
2024/01/06 00:10:24;;;;;;;0.00;0.00;;;;;;;5.68;100.00;99819.38;4926215;28;20050;-79
2024/01/06 00:12:51;;;;;;;0.00;0.00;;;;;;;5.52;100.00;99826.44;4929928;29;20517;-78
2024/01/06 00:15:17;;;;;;;0.00;0.00;;;;;;;5.36;100.00;99828.09;4975191;28;20038;-79
2024/01/06 00:17:42;;;;;;;0.00;0.00;;;;;;;5.25;100.00;99826.28;4926194;28;20026;-79
2024/01/06 00:20:08;;;;;;;0.00;0.00;;;;;;;5.28;100.00;99831.19;4927772;28;20030;-79
2024/01/06 00:22:34;;;;;;;0.10;0.10;;;;;;;5.25;100.00;99810.81;4957349;28;20027;-78
2024/01/06 00:25:00;;;;;;;0.10;0.10;;;;;;;5.29;100.00;99819.28;4937037;28;20032;-78
2024/01/06 00:27:25;;;;;;;0.00;0.00;;;;;;;5.45;100.00;99835.78;4911322;29;20055;-79
2024/01/06 00:29:51;;;;;;;0.00;0.00;;;;;;;5.47;100.00;99834.50;4947869;28;20082;-79
2024/01/06 00:32:16;;;;;;;0.00;0.00;;;;;;;5.49;100.00;99826.09;4924726;28;20803;-76
2024/01/06 00:34:41;;;;;;;0.10;0.10;;;;;;;5.50;100.00;99828.56;4956128;28;20046;-78
2024/01/06 00:37:07;;;;;;;0.03;0.03;;;;;;;5.57;100.00;99839.25;4948860;28;20382;-78
2024/01/06 00:39:32;;;;;;;0.00;0.00;;;;;;;5.47;100.00;99833.69;4942328;29;20105;-79
2024/01/06 00:41:58;;;;;;;0.00;0.00;;;;;;;5.32;100.00;99835.06;4924600;28;21223;-78
2024/01/06 00:44:23;;;;;;;0.00;0.00;;;;;;;5.24;100.00;99849.03;4920551;29;20023;-78
2024/01/06 00:46:49;;;;;;;0.00;0.00;;;;;;;5.12;100.00;99856.41;4937680;28;20235;-78
2024/01/06 00:49:14;;;;;;;0.00;0.00;;;;;;;4.97;100.00;99846.94;4940758;28;20027;-78
2024/01/06 00:51:40;;;;;;;0.00;0.00;;;;;;;5.06;100.00;99856.28;4930616;29;20054;-77
2024/01/06 00:54:05;;;;;;;0.03;0.03;;;;;;;5.15;100.00;99864.03;4962025;28;20560;-79
2024/01/06 00:56:30;;;;;;;0.00;0.00;;;;;;;5.27;100.00;99862.09;4935217;28;20097;-78
2024/01/06 00:58:56;;;;;;;0.00;0.00;;;;;;;5.36;100.00;99862.50;4966400;28;20035;-78
2024/01/06 01:01:21;;;;;;;0.00;0.00;;;;;;;5.39;100.00;99853.91;4936643;29;20102;-79
2024/01/06 01:03:47;;;;;;;0.00;0.00;;;;;;;5.48;100.00;99857.03;4939341;28;20027;-79
2024/01/06 01:06:12;;;;;;;0.10;0.10;;;;;;;5.54;100.00;99866.88;4933211;28;20090;-79
2024/01/06 01:08:38;;;;;;;0.00;0.00;;;;;;;5.48;100.00;99851.59;4957126;28;20466;-78
2024/01/06 01:11:04;;;;;;;0.00;0.00;;;;;;;5.44;100.00;99845.03;4971893;28;20019;-79
2024/01/06 01:13:29;;;;;;;0.00;0.00;;;;;;;5.60;100.00;99874.03;4961261;28;20025;-79
2024/01/06 01:15:57;;;;;;;0.10;0.10;;;;;;;5.53;100.00;99868.75;4939622;28;20462;-79
2024/01/06 01:18:22;;;;;;;0.00;0.00;;;;;;;5.17;100.00;99834.78;4942287;28;20159;-78
2024/01/06 01:20:48;;;;;;;0.00;0.00;;;;;;;5.02;100.00;99843.50;4942206;28;20030;-79
2024/01/06 01:23:13;;;;;;;0.00;0.00;;;;;;;5.03;100.00;99872.25;4946814;28;20082;-78
2024/01/06 01:25:39;;;;;;;0.00;0.00;;;;;;;5.02;100.00;99882.25;4965325;28;20116;-79
2024/01/06 01:28:04;;;;;;;0.10;0.10;;;;;;;5.00;100.00;99878.97;4928123;28;20081;-79
2024/01/06 01:30:46;;;;;;;0.00;0.00;;;;;;;4.86;100.00;99855.94;4953645;28;20035;-78
2024/01/06 01:33:14;;;;;;;0.00;0.00;;;;;;;5.00;100.00;99875.44;4979072;28;20101;-79
2024/01/06 01:35:40;;;;;;;0.00;0.00;;;;;;;4.84;100.00;99856.16;4952457;28;20038;-79
2024/01/06 01:38:07;;;;;;;0.00;0.00;;;;;;;4.65;100.00;99831.16;4969927;28;20097;-78
2024/01/06 01:40:32;;;;;;;0.00;0.00;;;;;;;4.85;100.00;99862.44;4957661;28;20023;-78
2024/01/06 01:42:58;;;;;;;0.00;0.00;;;;;;;4.79;100.00;99858.78;4952296;28;20374;-79
2024/01/06 01:45:23;;;;;;;0.00;0.00;;;;;;;4.96;100.00;99888.63;4956657;28;20097;-79
2024/01/06 01:47:49;;;;;;;0.00;0.00;;;;;;;5.00;100.00;99900.63;4927717;29;20042;-78
2024/01/06 01:50:33;;;;;;;0.10;0.10;;;;;;;4.83;100.00;99884.34;4963600;28;20058;-80
2024/01/06 01:53:02;;;;;;;0.10;0.10;;;;;;;4.85;100.00;99892.22;4968218;28;20027;-79
2024/01/06 01:55:28;;;;;;;0.00;0.00;;;;;;;4.82;100.00;99893.53;4979043;28;20076;-78
2024/01/06 01:57:55;;;;;;;0.10;0.10;;;;;;;4.60;100.00;99866.28;4955466;28;20028;-78
2024/01/06 02:00:31;;;;;;;;;;;;;;;;;;;;;
2024/01/06 02:02:59;;;;;;;0.00;0.00;;;;;;;5.03;100.00;99927.25;4985463;28;20083;-79
2024/01/06 02:05:27;;;;;;;0.00;0.00;;;;;;;5.02;100.00;99914.78;4960294;28;20007;-81
2024/01/06 02:08:10;;;;;;;0.00;0.00;;;;;;;4.92;100.00;99890.19;4970794;28;20023;-79
2024/01/06 02:10:45;;;;;;;0.10;0.10;;;;;;;5.02;100.00;99893.09;4978792;28;20006;-79
2024/01/06 02:13:14;;;;;;;0.00;0.00;;;;;;;5.17;100.00;99907.97;4969460;28;20018;-79
2024/01/06 02:15:40;;;;;;;0.00;0.00;;;;;;;4.94;100.00;99871.81;4967897;28;20023;-79
2024/01/06 02:18:06;;;;;;;0.00;0.00;;;;;;;5.30;100.00;99929.41;4960075;28;20061;-78
2024/01/06 02:20:34;;;;;;;0.00;0.00;;;;;;;5.26;100.00;99920.09;4978683;28;20114;-80
2024/01/06 02:23:03;;;;;;;0.10;0.10;;;;;;;5.40;100.00;99940.44;4948643;28;20039;-80
2024/01/06 02:25:39;;;;;;;0.00;0.00;;;;;;;5.34;100.00;99916.16;4948426;28;20033;-80
2024/01/06 02:28:28;;;;;;;0.00;0.00;;;;;;;5.46;100.00;99930.50;4978150;28;20019;-80
2024/01/06 02:30:55;;;;;;;0.00;0.00;;;;;;;5.45;100.00;99930.72;4970401;28;20055;-79
2024/01/06 02:33:23;;;;;;;0.00;0.00;;;;;;;5.24;100.00;99901.38;4980084;28;20050;-79
2024/01/06 02:35:49;;;;;;;0.10;0.10;;;;;;;5.51;100.00;99959.59;4972457;28;20023;-79
2024/01/06 02:38:17;;;;;;;0.00;0.00;;;;;;;5.50;100.00;99947.09;4988973;28;20057;-80
2024/01/06 02:40:48;;;;;;;0.00;0.00;;;;;;;5.44;100.00;99939.94;4955305;28;20031;-79
2024/01/06 02:43:23;;;;;;;0.00;0.00;;;;;;;5.47;100.00;99947.59;4963180;28;20022;-79
2024/01/06 02:45:56;;;;;;;0.00;0.00;;;;;;;5.38;100.00;99939.81;4973596;28;20052;-79
2024/01/06 02:48:30;;;;;;;0.00;0.00;;;;;;;5.28;100.00;99917.94;4981887;28;20019;-78
2024/01/06 02:50:58;;;;;;;0.10;0.10;;;;;;;5.35;100.00;99934.09;4980336;28;20050;-79
2024/01/06 02:53:26;;;;;;;0.00;0.00;;;;;;;5.40;100.00;99937.72;4961891;28;20397;-78
2024/01/06 02:55:52;;;;;;;0.00;0.00;;;;;;;5.25;100.00;99913.84;4977881;28;20030;-78
2024/01/06 02:58:22;;;;;;;0.10;0.10;;;;;;;5.13;100.00;99904.13;4977901;28;20027;-79
2024/01/06 03:00:48;;;;;;;0.00;0.00;;;;;;;5.34;100.00;99937.84;4967108;28;20034;-78
2024/01/06 03:03:13;;;;;;;0.00;0.00;;;;;;;5.48;100.00;99955.47;4951722;28;20019;-78
2024/01/06 03:05:38;;;;;;;0.10;0.10;;;;;;;5.49;100.00;99969.84;4942506;28;20386;-80
2024/01/06 03:08:04;;;;;;;0.00;0.00;;;;;;;5.32;100.00;99958.97;4956649;28;20082;-78
2024/01/06 03:10:30;;;;;;;0.10;0.10;;;;;;;5.32;100.00;99977.97;4962681;28;20023;-78
2024/01/06 03:12:55;;;;;;;0.00;0.00;;;;;;;5.18;100.00;99955.72;4933721;28;20023;-79
2024/01/06 03:15:21;;;;;;;0.00;0.00;;;;;;;5.26;100.00;99974.31;4950119;29;20015;-79
2024/01/06 03:17:47;;;;;;;0.00;0.00;;;;;;;5.07;100.00;99947.38;4980985;28;20034;-79
2024/01/06 03:20:12;;;;;;;0.00;0.00;;;;;;;5.02;100.00;99969.00;4993712;28;20017;-78
2024/01/06 03:22:38;;;;;;;0.00;0.00;;;;;;;4.71;100.00;99952.06;4955058;28;20031;-78
2024/01/06 03:25:04;;;;;;;0.00;0.00;;;;;;;4.60;100.00;99971.91;4946833;28;20133;-79
2024/01/06 03:27:31;;;;;;;0.00;0.00;;;;;;;4.49;100.00;99981.66;4986341;28;20046;-76
2024/01/06 03:29:56;;;;;;;0.00;0.00;;;;;;;4.29;100.00;99979.34;4980405;28;20044;-77
2024/01/06 03:32:22;;;;;;;0.00;0.00;;;;;;;4.23;100.00;99969.44;4976259;28;20370;-77
2024/01/06 03:34:50;;;;;;;0.00;0.00;;;;;;;4.33;100.00;99980.50;4935736;28;20181;-76
2024/01/06 03:37:15;;;;;;;0.00;0.00;;;;;;;4.29;100.00;99986.63;4951849;28;20049;-77
2024/01/06 03:39:43;;;;;;;0.00;0.00;;;;;;;4.17;100.00;99986.63;4967888;28;20035;-78
2024/01/06 03:42:11;;;;;;;0.10;0.10;;;;;;;4.23;100.00;99992.97;4979650;28;20038;-77
2024/01/06 03:44:39;;;;;;;0.00;0.00;;;;;;;4.19;100.00;99987.19;4986676;28;20023;-77
2024/01/06 03:47:05;;;;;;;0.00;0.00;;;;;;;4.25;100.00;100001.69;4952823;28;20053;-78
2024/01/06 03:49:48;;;;;;;0.00;0.00;;;;;;;3.81;100.00;99945.16;4941343;28;20074;-78
2024/01/06 03:52:16;;;;;;;0.00;0.00;;;;;;;3.90;100.00;99978.09;4982371;28;20113;-77
2024/01/06 03:54:44;;;;;;;0.10;0.10;;;;;;;3.85;100.00;99992.34;4971017;28;20034;-78
2024/01/06 03:57:27;;;;;;;0.00;0.00;;;;;;;3.63;100.00;99965.81;4957050;28;20026;-78
2024/01/06 03:59:52;;;;;;;0.00;0.00;;;;;;;3.48;100.00;99960.03;4964222;28;20035;-78
2024/01/06 04:02:27;;;;;;;0.00;0.00;;;;;;;3.71;100.00;100001.69;4964716;28;20082;-77
2024/01/06 04:04:52;;;;;;;0.00;0.00;;;;;;;3.78;100.00;100010.53;4966836;28;20026;-77
2024/01/06 04:07:18;;;;;;;0.00;0.00;;;;;;;3.82;100.00;100022.56;4947826;28;20022;-77
2024/01/06 04:09:43;;;;;;;0.10;0.10;;;;;;;3.72;100.00;100020.41;4950458;28;20026;-77
2024/01/06 04:12:09;;;;;;;0.10;0.10;;;;;;;3.50;100.00;100006.56;4931442;28;20031;-78
2024/01/06 04:14:35;;;;;;;0.00;0.00;;;;;;;3.49;100.00;100010.34;4942326;28;20038;-78
2024/01/06 04:17:00;;;;;;;0.00;0.00;;;;;;;3.41;100.00;100008.78;4950054;28;20027;-79
2024/01/06 04:19:26;;;;;;;0.00;0.00;;;;;;;3.28;100.00;100004.38;4929663;28;20586;-77
2024/01/06 04:21:51;;;;;;;0.00;0.00;;;;;;;3.30;100.00;100017.66;4938444;29;20394;-78
2024/01/06 04:24:19;;;;;;;0.00;0.00;;;;;;;3.20;100.00;100018.22;4958931;28;20011;-77
2024/01/06 04:26:45;;;;;;;0.00;0.00;;;;;;;3.32;100.00;100035.31;4917117;28;20085;-77
2024/01/06 04:29:16;;;;;;;0.00;0.00;;;;;;;3.23;100.00;100033.97;4971521;28;20685;-77
2024/01/06 04:31:46;;;;;;;0.00;0.00;;;;;;;3.21;100.00;100035.25;4952403;28;20511;-78
2024/01/06 04:34:12;;;;;;;0.10;0.10;;;;;;;3.08;100.00;100017.31;4944346;28;20050;-78
2024/01/06 04:36:49;;;;;;;;;;;;;;;;;;;;;
2024/01/06 04:39:15;;;;;;;0.10;0.10;;;;;;;3.16;100.00;99995.41;4950453;28;20015;-78
2024/01/06 04:41:41;;;;;;;0.10;0.10;;;;;;;3.51;100.00;100026.34;4955627;28;20023;-77
2024/01/06 04:44:06;;;;;;;0.00;0.00;;;;;;;3.86;100.00;100058.91;4950336;28;20015;-79
2024/01/06 04:46:31;;;;;;;0.00;0.00;;;;;;;3.95;100.00;100052.09;4918008;28;20011;-78
2024/01/06 04:48:57;;;;;;;0.00;0.00;;;;;;;4.16;100.00;100063.44;4942420;28;20109;-78
2024/01/06 04:51:22;;;;;;;0.03;0.03;;;;;;;4.25;100.00;100067.47;4968363;28;20045;-77
2024/01/06 04:53:48;;;;;;;0.00;0.00;;;;;;;4.24;100.00;100057.72;4932051;28;20034;-78
2024/01/06 04:56:13;;;;;;;0.00;0.00;;;;;;;4.25;100.00;100056.66;4939666;28;20050;-79
2024/01/06 04:58:39;;;;;;;0.00;0.00;;;;;;;4.31;100.00;100061.13;4954056;28;22180;-76
2024/01/06 05:01:05;;;;;;;0.00;0.00;;;;;;;4.40;100.00;100063.50;4948399;28;20034;-78
2024/01/06 05:03:30;;;;;;;0.10;0.10;;;;;;;4.38;100.00;100058.31;4937396;28;20075;-77
2024/01/06 05:05:56;;;;;;;0.10;0.10;;;;;;;4.43;100.00;100058.44;4957628;28;20030;-78
2024/01/06 05:08:22;;;;;;;0.00;0.00;;;;;;;4.44;100.00;100079.03;4924508;28;20030;-78
2024/01/06 05:10:48;;;;;;;0.10;0.10;;;;;;;4.40;100.00;100079.75;4936905;28;20045;-77
2024/01/06 05:13:14;;;;;;;0.00;0.00;;;;;;;4.31;100.00;100058.44;4958785;28;20042;-77
2024/01/06 05:15:39;;;;;;;0.10;0.10;;;;;;;4.42;100.00;100077.63;4957471;28;20031;-79
2024/01/06 05:18:05;;;;;;;0.00;0.00;;;;;;;4.35;100.00;100070.44;4987644;28;20027;-79
2024/01/06 05:20:30;;;;;;;0.00;0.00;;;;;;;4.37;100.00;100081.03;4954731;28;20030;-78
2024/01/06 05:22:56;;;;;;;0.10;0.10;;;;;;;4.28;100.00;100077.84;4946395;28;20477;-79
2024/01/06 05:25:21;;;;;;;0.00;0.00;;;;;;;4.30;100.00;100086.53;4926780;28;20465;-78
2024/01/06 05:27:47;;;;;;;0.00;0.00;;;;;;;4.34;100.00;100093.16;4978298;28;20043;-78
2024/01/06 05:30:12;;;;;;;0.10;0.10;;;;;;;4.35;100.00;100089.38;4951711;28;20051;-78
2024/01/06 05:32:38;;;;;;;0.10;0.10;;;;;;;4.42;100.00;100088.44;4932681;28;20058;-78
2024/01/06 05:35:04;;;;;;;0.10;0.10;;;;;;;4.45;100.00;100102.34;4958556;28;20071;-79
2024/01/06 05:37:31;;;;;;;0.00;0.00;;;;;;;4.44;100.00;100097.16;4920860;28;20513;-78
2024/01/06 05:39:58;;;;;;;0.10;0.10;;;;;;;4.36;100.00;100101.03;4962058;28;20086;-78
2024/01/06 05:42:23;;;;;;;0.00;0.00;;;;;;;4.31;100.00;100088.19;4934248;28;20079;-79
2024/01/06 05:44:49;;;;;;;0.00;0.00;;;;;;;4.25;100.00;100097.25;4928732;28;20030;-79
2024/01/06 05:47:14;;;;;;;0.10;0.10;;;;;;;4.14;100.00;100108.88;4939039;29;20014;-79
2024/01/06 05:49:44;;;;;;;0.00;0.00;;;;;;;3.98;100.00;100105.75;4940595;28;20034;-77
2024/01/06 05:52:09;;;;;;;0.00;0.00;;;;;;;3.84;100.00;100104.28;4948247;28;20041;-79
2024/01/06 05:54:35;;;;;;;0.10;0.10;;;;;;;3.73;100.00;100108.59;4943731;28;20023;-77
2024/01/06 05:57:00;;;;;;;0.00;0.00;;;;;;;3.79;100.00;100114.97;4926422;28;20023;-78
2024/01/06 05:59:26;;;;;;;0.00;0.00;;;;;;;3.88;100.00;100129.84;4937891;28;20026;-78
2024/01/06 06:01:52;;;;;;;0.00;0.00;;;;;;;3.99;100.00;100134.47;4933334;28;20039;-78
2024/01/06 06:04:18;;;;;;;0.00;0.00;;;;;;;4.01;100.00;100120.72;4958081;28;20705;-80
2024/01/06 06:06:44;;;;;;;0.10;0.10;;;;;;;4.05;100.00;100138.16;4966104;28;20082;-78
2024/01/06 06:09:10;;;;;;;0.00;0.00;;;;;;;4.06;100.00;100138.97;4945306;28;20026;-78
2024/01/06 06:11:36;;;;;;;0.10;0.10;;;;;;;4.05;100.00;100148.16;4986671;28;20034;-77
2024/01/06 06:14:04;;;;;;;0.00;0.00;;;;;;;3.99;100.00;100145.28;4937199;28;20018;-77
2024/01/06 06:16:30;;;;;;;0.00;0.00;;;;;;;3.86;100.00;100129.25;4949815;28;20492;-78
2024/01/06 06:18:55;;;;;;;0.10;0.10;;;;;;;3.86;100.00;100155.47;4922441;28;20035;-79
2024/01/06 06:21:20;;;;;;;0.00;0.00;;;;;;;3.80;100.00;100166.16;4934768;29;20496;-77
2024/01/06 06:23:46;;;;;;;0.00;0.00;;;;;;;3.74;100.00;100163.50;4938369;28;20035;-77
2024/01/06 06:26:14;;;;;;;0.00;0.00;;;;;;;3.59;100.00;100172.88;4934603;28;20030;-74
2024/01/06 06:28:39;;;;;;;0.00;0.00;;;;;;;3.50;100.00;100185.00;4921822;29;20134;-77
2024/01/06 06:31:04;;;;;;;0.10;0.10;;;;;;;3.37;100.00;100179.75;4961975;28;20045;-79
2024/01/06 06:33:30;;;;;;;0.00;0.00;;;;;;;3.30;100.00;100180.66;4939801;29;20081;-77
2024/01/06 06:35:55;;;;;;;0.10;0.10;;;;;;;3.19;100.00;100184.09;4949748;28;20035;-77
2024/01/06 06:38:21;;;;;;;0.00;0.00;;;;;;;3.16;100.00;100189.94;4974640;28;20031;-78
2024/01/06 06:40:47;;;;;;;0.10;0.10;;;;;;;3.06;100.00;100192.34;4959217;28;20730;-78
2024/01/06 06:43:13;;;;;;;0.00;0.00;;;;;;;3.06;100.00;100197.72;4954899;28;20755;-77
2024/01/06 06:45:40;;;;;;;0.00;0.00;;;;;;;2.95;100.00;100194.72;4919417;29;20130;-78
2024/01/06 06:48:06;;;;;;;0.10;0.10;;;;;;;2.91;100.00;100208.88;4946513;28;20181;-76
2024/01/06 06:50:32;;;;;;;0.00;0.00;;;;;;;2.83;100.00;100204.56;4926572;29;20050;-78
2024/01/06 06:52:57;;;;;;;0.00;0.00;;;;;;;2.78;100.00;100205.22;4945684;28;20046;-77
2024/01/06 06:55:23;;;;;;;0.10;0.10;;;;;;;2.75;100.00;100218.34;4940257;28;20035;-77
2024/01/06 06:57:49;;;;;;;0.10;0.10;;;;;;;2.59;100.00;100195.41;4954370;28;20027;-75
2024/01/06 07:00:16;;;;;;;0.10;0.10;;;;;;;2.65;100.00;100223.41;4947831;28;20060;-76
2024/01/06 07:02:41;;;;;;;0.10;0.10;;;;;;;2.57;100.00;100219.09;4929745;29;20074;-77
2024/01/06 07:05:07;;;;;;;0.00;0.00;;;;;;;2.53;100.00;100232.22;4979078;28;20023;-77
2024/01/06 07:07:33;;;;;;;0.08;0.08;;;;;;;2.53;100.00;100245.72;4959459;28;20432;-77
2024/01/06 07:10:01;;;;;;;0.10;0.10;;;;;;;2.52;100.00;100248.63;4940434;28;20065;-78
2024/01/06 07:12:27;;;;;;;0.10;0.10;;;;;;;2.41;100.00;100237.47;4987690;28;20033;-77
2024/01/06 07:14:53;;;;;;;0.10;0.10;;;;;;;2.44;100.00;100253.25;4954014;28;20029;-77
2024/01/06 07:17:19;;;;;;;0.08;0.08;;;;;;;2.38;100.00;100250.56;4940352;28;20470;-78
2024/01/06 07:19:46;;;;;;;0.00;0.00;;;;;;;2.31;100.00;100247.91;4983867;28;20053;-79
2024/01/06 07:22:11;;;;;;;0.10;0.10;;;;;;;2.18;100.00;100227.22;4939456;28;20023;-78
2024/01/06 07:24:37;;;;;;;0.10;0.10;;;;;;;2.20;100.00;100238.63;4960020;28;20034;-77
2024/01/06 07:27:03;;;;;;;0.10;0.10;;;;;;;2.36;100.00;100261.56;4940808;28;20027;-77
2024/01/06 07:29:28;;;;;;;0.10;0.10;;;;;;;2.33;100.00;100255.78;4930192;28;20031;-78
2024/01/06 07:31:54;;;;;;;0.00;0.00;;;;;;;2.29;100.00;100255.38;4961035;28;20061;-78
2024/01/06 07:34:19;;;;;;;0.10;0.10;;;;;;;2.20;100.00;100248.59;4958178;28;20062;-79
2024/01/06 07:36:45;;;;;;;0.00;0.00;;;;;;;2.27;100.00;100260.19;4949665;28;20018;-78
2024/01/06 07:39:13;;;;;;;0.10;0.10;;;;;;;2.42;100.00;100282.31;4940967;28;20023;-78
2024/01/06 07:41:39;;;;;;;0.10;0.10;;;;;;;2.44;100.00;100284.81;4926533;29;20032;-78
2024/01/06 07:44:04;;;;;;;0.00;0.00;;;;;;;2.39;100.00;100292.72;4946028;28;20038;-77
2024/01/06 07:46:31;;;;;;;0.10;0.10;;;;;;;2.27;100.00;100281.75;4957988;28;20044;-78
2024/01/06 07:48:59;;;;;;;0.00;0.00;;;;;;;2.32;100.00;100294.59;4950543;28;20031;-77
2024/01/06 07:51:25;;;;;;;0.10;0.10;;;;;;;2.23;100.00;100294.88;4947078;28;20046;-78
2024/01/06 07:53:50;;;;;;;0.10;0.10;;;;;;;2.00;100.00;100254.06;4942113;29;20035;-77
2024/01/06 07:56:16;;;;;;;0.00;0.00;;;;;;;2.26;100.00;100299.84;4935803;28;20016;-77
2024/01/06 07:58:42;;;;;;;0.10;0.10;;;;;;;2.30;100.00;100297.53;4989078;28;20054;-79
2024/01/06 08:01:12;;;;;;;0.10;0.10;;;;;;;2.24;100.00;100301.91;4961966;28;20014;-77
2024/01/06 08:03:38;;;;;;;0.10;0.10;;;;;;;2.27;100.00;100323.06;4956538;28;20034;-77
2024/01/06 08:06:04;;;;;;;0.10;0.10;;;;;;;2.27;100.00;100323.06;4959821;28;20066;-78
2024/01/06 08:08:29;;;;;;;0.00;0.00;;;;;;;2.30;100.00;100321.81;4927838;28;20041;-79
2024/01/06 08:10:55;;;;;;;0.00;0.00;;;;;;;2.32;100.00;100332.38;4929569;29;20482;-78
2024/01/06 08:13:20;;;;;;;0.00;0.00;;;;;;;2.26;100.00;100320.56;4941757;28;20089;-78
2024/01/06 08:15:45;;;;;;;0.00;0.00;;;;;;;2.36;100.00;100341.72;4915427;28;20046;-78
2024/01/06 08:18:11;;;;;;;0.10;0.10;;;;;;;2.39;100.00;100349.38;4930558;28;20489;-77
2024/01/06 08:20:36;;;;;;;0.00;0.00;;;;;;;2.45;100.00;100351.22;4958828;28;20058;-78
2024/01/06 08:23:02;;;;;;;0.00;0.00;;;;;;;2.45;100.00;100343.13;4929279;28;20027;-81
2024/01/06 08:25:30;;;;;;;0.00;0.00;;;;;;;2.53;100.00;100345.59;4960650;28;20038;-81
2024/01/06 08:27:59;;;;;;;0.10;0.10;;;;;;;2.54;100.00;100355.34;4948920;28;20114;-81
2024/01/06 08:30:24;;;;;;;0.10;0.10;;;;;;;2.66;100.00;100362.75;4948776;28;20046;-80
2024/01/06 08:32:50;;;;;;;0.00;0.00;;;;;;;2.65;100.00;100363.81;4932691;28;20023;-79
2024/01/06 08:35:16;;;;;;;0.10;0.10;;;;;;;2.76;100.00;100379.31;4940382;28;20050;-80
2024/01/06 08:37:43;;;;;;;0.00;0.00;;;;;;;2.87;100.00;100389.44;4931925;28;20049;-80
2024/01/06 08:40:09;;;;;;;0.03;0.03;;;;;;;2.96;100.00;100396.28;4944204;28;20038;-78
2024/01/06 08:42:34;;;;;;;0.10;0.10;;;;;;;3.01;100.00;100392.91;4941693;28;20482;-79
2024/01/06 08:45:00;;;;;;;0.10;0.10;;;;;;;3.14;100.00;100389.31;4971826;28;20030;-82
2024/01/06 08:47:25;;;;;;;0.00;0.00;;;;;;;3.20;100.00;100407.34;4930289;28;20035;-77
2024/01/06 08:49:50;;;;;;;0.00;0.00;;;;;;;3.19;100.00;100407.56;4964727;28;20048;-79
2024/01/06 08:52:16;;;;;;;0.00;0.00;;;;;;;3.22;100.00;100402.53;4939086;29;20030;-80
2024/01/06 08:54:42;;;;;;;0.00;0.00;;;;;;;3.13;100.00;100385.75;4949643;28;20054;-76
2024/01/06 08:57:10;;;;;;;0.00;0.00;;;;;;;3.17;100.00;100415.06;4955534;28;20022;-79
2024/01/06 08:59:35;;;;;;;0.10;0.10;;;;;;;3.14;100.00;100419.84;4946023;28;20023;-78
2024/01/06 09:02:01;;;;;;;0.00;0.00;;;;;;;3.12;100.00;100415.72;4968220;28;20481;-78
2024/01/06 09:04:26;;;;;;;0.10;0.10;;;;;;;3.16;100.00;100418.81;4938504;29;20086;-80
2024/01/06 09:06:52;;;;;;;0.00;0.00;;;;;;;3.23;100.00;100425.84;4950885;28;20074;-78
2024/01/06 09:09:17;;;;;;;0.00;0.00;;;;;;;3.32;100.00;100421.00;4944888;28;20054;-77
2024/01/06 09:11:44;;;;;;;0.10;0.10;;;;;;;3.42;100.00;100436.75;4921857;28;20107;-77
2024/01/06 09:14:18;;;;;;;0.00;0.00;;;;;;;3.51;100.00;100446.25;4939261;28;20023;-78
2024/01/06 09:16:44;;;;;;;0.00;0.00;;;;;;;3.63;100.00;100439.06;4940582;28;20085;-78
2024/01/06 09:19:18;;;;;;;0.10;0.10;;;;;;;3.84;100.00;100448.69;4964719;28;20027;-77
2024/01/06 09:21:43;;;;;;;0.10;0.10;;;;;;;3.91;100.00;100439.69;4968324;28;20385;-78
2024/01/06 09:24:09;;;;;;;0.00;0.00;;;;;;;4.10;100.00;100449.50;4938329;28;20031;-79
2024/01/06 09:26:35;;;;;;;0.00;0.00;;;;;;;4.21;100.00;100457.97;4951885;28;20441;-79
2024/01/06 09:29:03;;;;;;;0.00;0.00;;;;;;;4.25;100.00;100446.44;4943038;28;20031;-79
2024/01/06 09:31:29;;;;;;;0.10;0.10;;;;;;;4.58;100.00;100456.09;4945265;28;20368;-79
2024/01/06 09:33:57;;;;;;;0.00;0.00;;;;;;;4.74;100.00;100441.09;4968727;28;20043;-78
2024/01/06 09:36:25;;;;;;;0.00;0.00;;;;;;;5.01;100.00;100452.47;4960467;28;20031;-78
2024/01/06 09:38:50;;;;;;;0.00;0.00;;;;;;;5.33;100.00;100468.50;4943071;28;20103;-79
2024/01/06 09:41:21;;;;;;;0.10;0.10;;;;;;;5.81;100.00;100484.91;4945593;28;20042;-77
2024/01/06 09:43:50;;;;;;;0.00;0.00;;;;;;;6.25;100.00;100470.00;4936508;28;20050;-79
2024/01/06 09:46:24;;;;;;;0.00;0.00;;;;;;;7.83;100.00;100478.03;4972417;28;20010;-79
2024/01/06 09:48:52;;;;;;;0.00;0.00;;;;;;;8.98;92.27;100471.25;4945659;28;20050;-78
2024/01/06 09:51:29;;;;;;;;;;;;;;;;;;;;;
2024/01/06 09:54:05;;;;;;;0.00;0.00;;;;;;;13.87;67.86;100466.91;4967736;28;20023;-79
2024/01/06 09:56:42;;;;;;;0.00;0.00;;;;;;;14.01;63.71;100500.91;4969556;28;20035;-78
2024/01/06 09:59:10;;;;;;;0.00;0.00;;;;;;;12.67;65.27;100515.25;4957544;28;20750;-79
2024/01/06 10:01:36;;;;;;;0.00;0.00;;;;;;;11.38;68.40;100516.31;4970466;28;20039;-78
2024/01/06 10:04:14;;;;;;;;;;;;;;;;;;;;;
2024/01/06 10:06:46;;;;;;;0.00;0.00;;;;;;;9.81;75.36;100525.66;4962531;28;20043;-79
2024/01/06 10:09:14;;;;;;;0.00;0.00;;;;;;;9.19;76.96;100494.97;4956728;28;20038;-78
2024/01/06 10:11:43;;;;;;;0.00;0.00;;;;;;;9.67;80.51;100514.31;4968619;28;20027;-79
2024/01/06 10:14:30;;;;;;;0.00;0.00;;;;;;;10.73;76.02;100495.50;4939425;28;20055;-79
2024/01/06 10:16:56;;;;;;;0.10;0.10;;;;;;;12.03;73.87;100512.06;4974324;28;20023;-78
2024/01/06 10:19:23;;;;;;;0.00;0.00;;;;;;;12.82;65.91;100499.88;4957811;28;20030;-78
2024/01/06 10:22:01;;;;;;;;;;;;;;;;;;;;;
2024/01/06 10:24:31;;;;;;;0.00;0.00;;;;;;;16.42;58.26;100529.31;4974300;28;20026;-79
2024/01/06 10:27:08;;;;;;;0.00;0.00;;;;;;;20.08;48.23;100534.16;4984894;28;20082;-77
2024/01/06 10:29:51;;;;;;;0.00;0.00;;;;;;;22.57;42.57;100525.44;4975901;28;20025;-78
2024/01/06 10:32:19;;;;;;;0.00;0.00;;;;;;;24.09;39.33;100539.41;4930081;28;20062;-79
2024/01/06 10:34:47;;;;;;;0.00;0.00;;;;;;;23.78;39.30;100538.91;4968830;28;20055;-79
2024/01/06 10:37:16;;;;;;;0.00;0.00;;;;;;;25.26;37.69;100557.69;4949241;28;20034;-80
2024/01/06 10:39:42;;;;;;;0.00;0.00;;;;;;;26.98;35.21;100564.44;4965510;28;20031;-78
2024/01/06 10:42:09;;;;;;;0.00;0.00;;;;;;;27.09;32.87;100542.19;4967180;28;20066;-79
2024/01/06 10:44:47;;;;;;;0.00;0.00;;;;;;;28.41;31.94;100547.22;4963822;28;20022;-79
2024/01/06 10:47:23;;;;;;;0.00;0.00;;;;;;;29.53;30.50;100554.66;4984469;28;20095;-78
2024/01/06 10:49:50;;;;;;;0.00;0.00;;;;;;;30.17;29.84;100520.34;4966382;28;20025;-78
2024/01/06 10:52:15;;;;;;;0.00;0.00;;;;;;;31.12;28.44;100528.53;4952533;28;20047;-77
2024/01/06 10:55:04;;;;;;;;;;;;;;;;;;;;;
2024/01/06 10:57:40;;;;;;;0.00;0.00;;;;;;;31.79;24.26;100520.31;4987818;28;20090;-83
2024/01/06 11:00:06;;;;;;;0.00;0.00;;;;;;;31.50;24.10;100542.19;4965809;28;20025;-78
2024/01/06 11:02:33;;;;;;;0.00;0.00;;;;;;;31.88;25.47;100550.16;4944139;28;20031;-78
2024/01/06 11:05:01;;;;;;;0.00;0.00;;;;;;;32.14;25.71;100546.03;4936016;28;20031;-77
2024/01/06 11:07:28;;;;;;;0.00;0.00;;;;;;;31.79;23.06;100540.13;4958917;28;20045;-77
2024/01/06 11:10:06;;;;;;;0.00;0.00;;;;;;;31.65;23.22;100552.25;4969253;28;20031;-78
2024/01/06 11:12:32;;;;;;;0.00;0.00;;;;;;;32.36;22.45;100541.09;4976005;28;20003;-79
2024/01/06 11:14:57;;;;;;;0.00;0.00;;;;;;;32.62;23.53;100536.03;4980187;28;20027;-78
2024/01/06 11:17:58;;;;;;;0.00;0.00;;;;;;;32.62;22.25;100541.72;4957111;28;20587;-77
2024/01/06 11:20:24;;;;;;;0.00;0.00;;;;;;;32.24;22.10;100544.38;4967243;28;20060;-77
2024/01/06 11:22:51;;;;;;;0.00;0.00;;;;;;;32.92;22.43;100537.47;4966029;28;20030;-78
2024/01/06 11:25:19;;;;;;;0.00;0.00;;;;;;;33.19;21.78;100549.78;4941354;29;20035;-78
2024/01/06 11:27:49;;;;;;;0.00;0.00;;;;;;;33.55;21.35;100549.41;4953192;28;20026;-77
2024/01/06 11:30:35;;;;;;;0.00;0.00;;;;;;;33.97;21.51;100548.56;4968648;28;20031;-78
2024/01/06 11:33:00;;;;;;;0.00;0.00;;;;;;;33.91;20.84;100551.88;4966581;28;20157;-80
2024/01/06 11:35:30;;;;;;;0.00;0.00;;;;;;;34.10;20.38;100552.44;4952550;28;20039;-78
2024/01/06 11:38:00;;;;;;;0.00;0.00;;;;;;;33.99;21.41;100557.44;4959832;28;20092;-76